sensor_id;sensor_type;location;lat;lon;timestamp;temperature;humidity
19307;DHT22;9788;48.194;16.318;2023-11-19T00:00:31;2.20;99.90
19307;DHT22;9788;48.194;16.318;2023-11-19T00:03:01;2.20;99.90
19307;DHT22;9788;48.194;16.318;2023-11-19T00:05:30;2.20;99.90
19307;DHT22;9788;48.194;16.318;2023-11-19T00:07:58;2.20;99.90
19307;DHT22;9788;48.194;16.318;2023-11-19T00:10:26;2.20;99.90
19307;DHT22;9788;48.194;16.318;2023-11-19T00:12:54;2.20;99.90
19307;DHT22;9788;48.194;16.318;2023-11-19T00:15:24;2.30;99.90
19307;DHT22;9788;48.194;16.318;2023-11-19T00:17:52;2.30;99.90
19307;DHT22;9788;48.194;16.318;2023-11-19T00:20:22;2.30;99.90
19307;DHT22;9788;48.194;16.318;2023-11-19T00:22:51;2.30;99.90
19307;DHT22;9788;48.194;16.318;2023-11-19T00:25:21;2.40;99.90
19307;DHT22;9788;48.194;16.318;2023-11-19T00:27:50;2.30;99.90
19307;DHT22;9788;48.194;16.318;2023-11-19T00:30:20;2.40;99.90
19307;DHT22;9788;48.194;16.318;2023-11-19T00:32:52;2.40;99.90
19307;DHT22;9788;48.194;16.318;2023-11-19T00:35:22;2.40;99.90
19307;DHT22;9788;48.194;16.318;2023-11-19T00:37:51;2.30;99.90
19307;DHT22;9788;48.194;16.318;2023-11-19T00:40:21;2.40;99.90
19307;DHT22;9788;48.194;16.318;2023-11-19T00:42:50;2.40;99.90
19307;DHT22;9788;48.194;16.318;2023-11-19T00:45:18;2.30;99.90
19307;DHT22;9788;48.194;16.318;2023-11-19T00:47:46;2.40;99.90
19307;DHT22;9788;48.194;16.318;2023-11-19T00:50:14;2.50;99.90
19307;DHT22;9788;48.194;16.318;2023-11-19T00:52:44;2.50;99.90
19307;DHT22;9788;48.194;16.318;2023-11-19T00:55:12;2.50;99.90
19307;DHT22;9788;48.194;16.318;2023-11-19T00:57:40;2.50;99.90
19307;DHT22;9788;48.194;16.318;2023-11-19T01:00:09;2.50;99.90
19307;DHT22;9788;48.194;16.318;2023-11-19T01:02:46;2.50;99.90
19307;DHT22;9788;48.194;16.318;2023-11-19T01:05:19;2.60;99.90
19307;DHT22;9788;48.194;16.318;2023-11-19T01:07:52;2.60;99.90
19307;DHT22;9788;48.194;16.318;2023-11-19T01:10:22;2.70;99.90
19307;DHT22;9788;48.194;16.318;2023-11-19T01:12:51;2.70;99.90
19307;DHT22;9788;48.194;16.318;2023-11-19T01:15:20;2.80;99.90
19307;DHT22;9788;48.194;16.318;2023-11-19T01:17:50;2.80;99.90
19307;DHT22;9788;48.194;16.318;2023-11-19T01:20:20;2.80;99.90
19307;DHT22;9788;48.194;16.318;2023-11-19T01:22:48;2.80;99.90
19307;DHT22;9788;48.194;16.318;2023-11-19T01:25:18;2.90;99.90
19307;DHT22;9788;48.194;16.318;2023-11-19T01:27:47;2.90;99.90
19307;DHT22;9788;48.194;16.318;2023-11-19T01:30:15;2.80;99.90
19307;DHT22;9788;48.194;16.318;2023-11-19T01:32:44;2.90;99.90
19307;DHT22;9788;48.194;16.318;2023-11-19T01:35:12;2.90;99.90
19307;DHT22;9788;48.194;16.318;2023-11-19T01:37:41;2.90;99.90
19307;DHT22;9788;48.194;16.318;2023-11-19T01:40:10;2.90;99.90
19307;DHT22;9788;48.194;16.318;2023-11-19T01:42:40;2.80;99.90
19307;DHT22;9788;48.194;16.318;2023-11-19T01:45:09;2.80;99.90
19307;DHT22;9788;48.194;16.318;2023-11-19T01:47:37;2.80;99.90
19307;DHT22;9788;48.194;16.318;2023-11-19T01:50:07;2.80;99.90
19307;DHT22;9788;48.194;16.318;2023-11-19T01:52:36;2.80;99.90
19307;DHT22;9788;48.194;16.318;2023-11-19T01:55:06;2.80;99.90
19307;DHT22;9788;48.194;16.318;2023-11-19T01:57:37;2.80;99.90
19307;DHT22;9788;48.194;16.318;2023-11-19T02:00:10;2.90;99.90
19307;DHT22;9788;48.194;16.318;2023-11-19T02:02:40;2.90;99.90
19307;DHT22;9788;48.194;16.318;2023-11-19T02:05:09;2.90;99.90
19307;DHT22;9788;48.194;16.318;2023-11-19T02:07:37;2.90;99.90
19307;DHT22;9788;48.194;16.318;2023-11-19T02:10:06;3.00;99.90
19307;DHT22;9788;48.194;16.318;2023-11-19T02:12:40;3.00;99.90
19307;DHT22;9788;48.194;16.318;2023-11-19T02:15:11;3.00;99.90
19307;DHT22;9788;48.194;16.318;2023-11-19T02:17:39;3.00;99.90
19307;DHT22;9788;48.194;16.318;2023-11-19T02:20:08;3.10;99.90
19307;DHT22;9788;48.194;16.318;2023-11-19T02:22:39;3.10;99.90
19307;DHT22;9788;48.194;16.318;2023-11-19T02:25:10;3.10;99.90
19307;DHT22;9788;48.194;16.318;2023-11-19T02:27:49;3.10;99.90
19307;DHT22;9788;48.194;16.318;2023-11-19T02:30:25;3.10;99.90
19307;DHT22;9788;48.194;16.318;2023-11-19T02:32:55;3.00;99.90
19307;DHT22;9788;48.194;16.318;2023-11-19T02:35:25;2.90;99.90
19307;DHT22;9788;48.194;16.318;2023-11-19T02:37:54;2.90;99.90
19307;DHT22;9788;48.194;16.318;2023-11-19T02:40:22;2.80;99.90
19307;DHT22;9788;48.194;16.318;2023-11-19T02:42:53;2.80;99.90
19307;DHT22;9788;48.194;16.318;2023-11-19T02:45:22;2.80;99.90
19307;DHT22;9788;48.194;16.318;2023-11-19T02:47:51;2.80;99.90
19307;DHT22;9788;48.194;16.318;2023-11-19T02:50:20;2.80;99.90
19307;DHT22;9788;48.194;16.318;2023-11-19T02:52:54;2.80;99.90
19307;DHT22;9788;48.194;16.318;2023-11-19T02:55:24;2.80;99.90
19307;DHT22;9788;48.194;16.318;2023-11-19T02:57:56;2.80;99.90
19307;DHT22;9788;48.194;16.318;2023-11-19T03:00:26;2.80;99.90
19307;DHT22;9788;48.194;16.318;2023-11-19T03:03:02;2.70;99.90
19307;DHT22;9788;48.194;16.318;2023-11-19T03:05:45;2.70;99.90
19307;DHT22;9788;48.194;16.318;2023-11-19T03:08:14;2.70;99.90
19307;DHT22;9788;48.194;16.318;2023-11-19T03:10:45;2.60;99.90
19307;DHT22;9788;48.194;16.318;2023-11-19T03:13:15;2.60;99.90
19307;DHT22;9788;48.194;16.318;2023-11-19T03:15:44;2.60;99.90
19307;DHT22;9788;48.194;16.318;2023-11-19T03:18:13;2.60;99.90
19307;DHT22;9788;48.194;16.318;2023-11-19T03:20:42;2.60;99.90
19307;DHT22;9788;48.194;16.318;2023-11-19T03:23:10;2.60;99.90
19307;DHT22;9788;48.194;16.318;2023-11-19T03:25:38;2.60;99.90
19307;DHT22;9788;48.194;16.318;2023-11-19T03:28:06;2.60;99.90
19307;DHT22;9788;48.194;16.318;2023-11-19T03:30:36;2.60;99.90
19307;DHT22;9788;48.194;16.318;2023-11-19T03:33:04;2.60;99.90
19307;DHT22;9788;48.194;16.318;2023-11-19T03:35:32;2.50;99.90
19307;DHT22;9788;48.194;16.318;2023-11-19T03:38:01;2.50;99.90
19307;DHT22;9788;48.194;16.318;2023-11-19T03:40:29;2.50;99.90
19307;DHT22;9788;48.194;16.318;2023-11-19T03:42:57;2.50;99.90
19307;DHT22;9788;48.194;16.318;2023-11-19T03:45:26;2.50;99.90
19307;DHT22;9788;48.194;16.318;2023-11-19T03:47:55;2.60;99.90
19307;DHT22;9788;48.194;16.318;2023-11-19T03:50:24;2.60;99.90
19307;DHT22;9788;48.194;16.318;2023-11-19T03:52:52;2.70;99.90
19307;DHT22;9788;48.194;16.318;2023-11-19T03:55:20;2.70;99.90
19307;DHT22;9788;48.194;16.318;2023-11-19T03:57:48;2.70;99.90
19307;DHT22;9788;48.194;16.318;2023-11-19T04:00:16;2.70;99.90
19307;DHT22;9788;48.194;16.318;2023-11-19T04:02:47;2.70;99.90
19307;DHT22;9788;48.194;16.318;2023-11-19T04:05:17;2.70;99.90
19307;DHT22;9788;48.194;16.318;2023-11-19T04:07:46;2.70;99.90
19307;DHT22;9788;48.194;16.318;2023-11-19T04:10:14;2.70;99.90
19307;DHT22;9788;48.194;16.318;2023-11-19T04:12:44;2.70;99.90
19307;DHT22;9788;48.194;16.318;2023-11-19T04:15:13;2.70;99.90
19307;DHT22;9788;48.194;16.318;2023-11-19T04:17:42;2.80;99.90
19307;DHT22;9788;48.194;16.318;2023-11-19T04:20:11;2.80;99.90
19307;DHT22;9788;48.194;16.318;2023-11-19T04:22:43;2.80;99.90
19307;DHT22;9788;48.194;16.318;2023-11-19T04:25:11;2.70;99.90
19307;DHT22;9788;48.194;16.318;2023-11-19T04:27:39;2.70;99.90
19307;DHT22;9788;48.194;16.318;2023-11-19T04:30:08;2.70;99.90
19307;DHT22;9788;48.194;16.318;2023-11-19T04:32:38;2.70;99.90
19307;DHT22;9788;48.194;16.318;2023-11-19T04:35:07;2.70;99.90
19307;DHT22;9788;48.194;16.318;2023-11-19T04:37:36;2.70;99.90
19307;DHT22;9788;48.194;16.318;2023-11-19T04:40:07;2.70;99.90
19307;DHT22;9788;48.194;16.318;2023-11-19T04:42:36;2.60;99.90
19307;DHT22;9788;48.194;16.318;2023-11-19T04:45:05;2.70;99.90
19307;DHT22;9788;48.194;16.318;2023-11-19T04:47:34;2.60;99.90
19307;DHT22;9788;48.194;16.318;2023-11-19T04:50:03;2.70;99.90
19307;DHT22;9788;48.194;16.318;2023-11-19T04:52:36;2.70;99.90
19307;DHT22;9788;48.194;16.318;2023-11-19T04:55:07;2.70;99.90
19307;DHT22;9788;48.194;16.318;2023-11-19T04:57:38;2.70;99.90
19307;DHT22;9788;48.194;16.318;2023-11-19T05:00:08;2.70;99.90
19307;DHT22;9788;48.194;16.318;2023-11-19T05:02:40;2.70;99.90
19307;DHT22;9788;48.194;16.318;2023-11-19T05:05:09;2.70;99.90
19307;DHT22;9788;48.194;16.318;2023-11-19T05:07:37;2.70;99.90
19307;DHT22;9788;48.194;16.318;2023-11-19T05:10:08;2.70;99.90
19307;DHT22;9788;48.194;16.318;2023-11-19T05:12:36;2.70;99.90
19307;DHT22;9788;48.194;16.318;2023-11-19T05:15:06;2.60;99.90
19307;DHT22;9788;48.194;16.318;2023-11-19T05:17:34;2.70;99.90
19307;DHT22;9788;48.194;16.318;2023-11-19T05:20:05;2.70;99.90
19307;DHT22;9788;48.194;16.318;2023-11-19T05:22:40;2.70;99.90
19307;DHT22;9788;48.194;16.318;2023-11-19T05:25:10;2.70;99.90
19307;DHT22;9788;48.194;16.318;2023-11-19T05:27:38;2.70;99.90
19307;DHT22;9788;48.194;16.318;2023-11-19T05:30:07;2.70;99.90
19307;DHT22;9788;48.194;16.318;2023-11-19T05:32:37;2.70;99.90
19307;DHT22;9788;48.194;16.318;2023-11-19T05:35:06;2.80;99.90
19307;DHT22;9788;48.194;16.318;2023-11-19T05:37:35;2.80;99.90
19307;DHT22;9788;48.194;16.318;2023-11-19T05:40:04;2.80;99.90
19307;DHT22;9788;48.194;16.318;2023-11-19T05:42:40;2.90;99.90
19307;DHT22;9788;48.194;16.318;2023-11-19T05:45:10;2.80;99.90
19307;DHT22;9788;48.194;16.318;2023-11-19T05:47:39;2.80;99.90
19307;DHT22;9788;48.194;16.318;2023-11-19T05:50:08;2.80;99.90
19307;DHT22;9788;48.194;16.318;2023-11-19T05:52:37;2.80;99.90
19307;DHT22;9788;48.194;16.318;2023-11-19T05:55:05;2.80;99.90
19307;DHT22;9788;48.194;16.318;2023-11-19T05:57:36;2.80;99.90
19307;DHT22;9788;48.194;16.318;2023-11-19T06:00:10;2.80;99.90
19307;DHT22;9788;48.194;16.318;2023-11-19T06:02:40;2.80;99.90
19307;DHT22;9788;48.194;16.318;2023-11-19T06:05:08;2.80;99.90
19307;DHT22;9788;48.194;16.318;2023-11-19T06:07:36;2.80;99.90
19307;DHT22;9788;48.194;16.318;2023-11-19T06:10:06;2.80;99.90
19307;DHT22;9788;48.194;16.318;2023-11-19T06:12:37;2.80;99.90
19307;DHT22;9788;48.194;16.318;2023-11-19T06:15:09;2.80;99.90
19307;DHT22;9788;48.194;16.318;2023-11-19T06:17:38;2.90;99.90
19307;DHT22;9788;48.194;16.318;2023-11-19T06:20:08;2.90;99.90
19307;DHT22;9788;48.194;16.318;2023-11-19T06:22:38;2.80;99.90
19307;DHT22;9788;48.194;16.318;2023-11-19T06:25:07;2.80;99.90
19307;DHT22;9788;48.194;16.318;2023-11-19T06:27:35;2.80;99.90
19307;DHT22;9788;48.194;16.318;2023-11-19T06:30:04;2.70;99.90
19307;DHT22;9788;48.194;16.318;2023-11-19T06:32:34;2.60;99.90
19307;DHT22;9788;48.194;16.318;2023-11-19T06:35:02;2.60;99.90
19307;DHT22;9788;48.194;16.318;2023-11-19T06:37:31;2.60;99.90
19307;DHT22;9788;48.194;16.318;2023-11-19T06:40:00;2.60;99.90
19307;DHT22;9788;48.194;16.318;2023-11-19T06:42:28;2.70;99.90
19307;DHT22;9788;48.194;16.318;2023-11-19T06:44:57;2.70;99.90
19307;DHT22;9788;48.194;16.318;2023-11-19T06:47:25;2.70;99.90
19307;DHT22;9788;48.194;16.318;2023-11-19T06:49:56;2.70;99.90
19307;DHT22;9788;48.194;16.318;2023-11-19T06:52:24;2.70;99.90
19307;DHT22;9788;48.194;16.318;2023-11-19T06:54:55;2.70;99.90
19307;DHT22;9788;48.194;16.318;2023-11-19T06:57:34;2.80;99.90
19307;DHT22;9788;48.194;16.318;2023-11-19T07:00:02;2.80;99.90
19307;DHT22;9788;48.194;16.318;2023-11-19T07:02:32;2.80;99.90
19307;DHT22;9788;48.194;16.318;2023-11-19T07:05:02;2.80;99.90
19307;DHT22;9788;48.194;16.318;2023-11-19T07:07:31;2.80;99.90
19307;DHT22;9788;48.194;16.318;2023-11-19T07:10:00;2.80;99.90
19307;DHT22;9788;48.194;16.318;2023-11-19T07:12:29;2.80;99.90
19307;DHT22;9788;48.194;16.318;2023-11-19T07:14:57;2.80;99.90
19307;DHT22;9788;48.194;16.318;2023-11-19T07:17:25;2.80;99.90
19307;DHT22;9788;48.194;16.318;2023-11-19T07:19:54;2.90;99.90
19307;DHT22;9788;48.194;16.318;2023-11-19T07:22:28;2.90;99.90
19307;DHT22;9788;48.194;16.318;2023-11-19T07:24:57;2.90;99.90
19307;DHT22;9788;48.194;16.318;2023-11-19T07:27:26;2.90;99.90
19307;DHT22;9788;48.194;16.318;2023-11-19T07:29:54;2.90;99.90
19307;DHT22;9788;48.194;16.318;2023-11-19T07:32:23;2.90;99.90
19307;DHT22;9788;48.194;16.318;2023-11-19T07:34:51;3.00;99.90
19307;DHT22;9788;48.194;16.318;2023-11-19T07:37:20;3.00;99.90
19307;DHT22;9788;48.194;16.318;2023-11-19T07:39:50;3.00;99.90
19307;DHT22;9788;48.194;16.318;2023-11-19T07:42:18;3.00;99.90
19307;DHT22;9788;48.194;16.318;2023-11-19T07:44:49;3.00;99.90
19307;DHT22;9788;48.194;16.318;2023-11-19T07:47:17;3.00;99.90
19307;DHT22;9788;48.194;16.318;2023-11-19T07:49:46;3.00;99.90
19307;DHT22;9788;48.194;16.318;2023-11-19T07:52:14;3.00;99.90
19307;DHT22;9788;48.194;16.318;2023-11-19T07:54:46;3.00;99.90
19307;DHT22;9788;48.194;16.318;2023-11-19T07:57:18;3.10;99.90
19307;DHT22;9788;48.194;16.318;2023-11-19T07:59:47;3.20;99.90
19307;DHT22;9788;48.194;16.318;2023-11-19T08:02:15;3.30;99.90
19307;DHT22;9788;48.194;16.318;2023-11-19T08:04:43;3.40;99.90
19307;DHT22;9788;48.194;16.318;2023-11-19T08:07:13;3.30;99.90
19307;DHT22;9788;48.194;16.318;2023-11-19T08:09:41;3.40;99.90
19307;DHT22;9788;48.194;16.318;2023-11-19T08:12:09;3.50;99.90
19307;DHT22;9788;48.194;16.318;2023-11-19T08:14:39;3.60;99.90
19307;DHT22;9788;48.194;16.318;2023-11-19T08:17:07;3.70;99.90
19307;DHT22;9788;48.194;16.318;2023-11-19T08:19:35;3.80;99.90
19307;DHT22;9788;48.194;16.318;2023-11-19T08:22:03;3.80;99.90
19307;DHT22;9788;48.194;16.318;2023-11-19T08:24:31;4.00;99.90
19307;DHT22;9788;48.194;16.318;2023-11-19T08:26:59;4.00;99.90
19307;DHT22;9788;48.194;16.318;2023-11-19T08:29:29;4.10;99.90
19307;DHT22;9788;48.194;16.318;2023-11-19T08:32:00;4.20;99.90
19307;DHT22;9788;48.194;16.318;2023-11-19T08:34:29;4.10;99.90
19307;DHT22;9788;48.194;16.318;2023-11-19T08:36:57;4.20;99.90
19307;DHT22;9788;48.194;16.318;2023-11-19T08:39:25;4.00;99.90
19307;DHT22;9788;48.194;16.318;2023-11-19T08:41:53;4.00;99.90
19307;DHT22;9788;48.194;16.318;2023-11-19T08:44:24;4.00;99.90
19307;DHT22;9788;48.194;16.318;2023-11-19T08:46:52;4.10;99.90
19307;DHT22;9788;48.194;16.318;2023-11-19T08:49:21;4.10;99.90
19307;DHT22;9788;48.194;16.318;2023-11-19T08:51:50;4.20;99.90
19307;DHT22;9788;48.194;16.318;2023-11-19T08:54:18;4.20;99.90
19307;DHT22;9788;48.194;16.318;2023-11-19T08:56:47;4.00;99.90
19307;DHT22;9788;48.194;16.318;2023-11-19T08:59:15;4.10;99.90
19307;DHT22;9788;48.194;16.318;2023-11-19T09:01:44;4.40;99.90
19307;DHT22;9788;48.194;16.318;2023-11-19T09:04:12;4.60;99.90
19307;DHT22;9788;48.194;16.318;2023-11-19T09:06:42;4.80;99.90
19307;DHT22;9788;48.194;16.318;2023-11-19T09:09:11;5.10;99.90
19307;DHT22;9788;48.194;16.318;2023-11-19T09:11:39;5.20;99.90
19307;DHT22;9788;48.194;16.318;2023-11-19T09:14:08;5.10;99.90
19307;DHT22;9788;48.194;16.318;2023-11-19T09:16:36;5.00;99.90
19307;DHT22;9788;48.194;16.318;2023-11-19T09:19:05;5.00;99.90
19307;DHT22;9788;48.194;16.318;2023-11-19T09:21:33;5.10;99.90
19307;DHT22;9788;48.194;16.318;2023-11-19T09:24:06;5.10;99.90
19307;DHT22;9788;48.194;16.318;2023-11-19T09:26:35;5.00;99.90
19307;DHT22;9788;48.194;16.318;2023-11-19T09:29:06;5.10;99.90
19307;DHT22;9788;48.194;16.318;2023-11-19T09:31:34;5.10;99.90
19307;DHT22;9788;48.194;16.318;2023-11-19T09:34:02;5.20;99.90
19307;DHT22;9788;48.194;16.318;2023-11-19T09:36:31;5.50;99.90
19307;DHT22;9788;48.194;16.318;2023-11-19T09:38:59;5.70;99.90
19307;DHT22;9788;48.194;16.318;2023-11-19T09:41:30;5.60;99.90
19307;DHT22;9788;48.194;16.318;2023-11-19T09:43:59;5.60;99.90
19307;DHT22;9788;48.194;16.318;2023-11-19T09:46:28;5.80;99.90
19307;DHT22;9788;48.194;16.318;2023-11-19T09:48:57;5.90;99.90
19307;DHT22;9788;48.194;16.318;2023-11-19T09:51:27;6.00;99.90
19307;DHT22;9788;48.194;16.318;2023-11-19T09:53:56;6.10;99.90
19307;DHT22;9788;48.194;16.318;2023-11-19T09:56:25;6.00;99.90
19307;DHT22;9788;48.194;16.318;2023-11-19T09:58:56;5.90;99.90
19307;DHT22;9788;48.194;16.318;2023-11-19T10:01:26;5.90;99.90
19307;DHT22;9788;48.194;16.318;2023-11-19T10:04:00;5.90;99.90
19307;DHT22;9788;48.194;16.318;2023-11-19T10:06:29;6.00;99.90
19307;DHT22;9788;48.194;16.318;2023-11-19T10:08:57;5.90;99.90
19307;DHT22;9788;48.194;16.318;2023-11-19T10:11:26;6.10;99.90
19307;DHT22;9788;48.194;16.318;2023-11-19T10:13:56;6.10;99.90
19307;DHT22;9788;48.194;16.318;2023-11-19T10:16:34;6.10;99.90
19307;DHT22;9788;48.194;16.318;2023-11-19T10:19:21;6.10;99.90
19307;DHT22;9788;48.194;16.318;2023-11-19T10:21:51;6.10;99.90
19307;DHT22;9788;48.194;16.318;2023-11-19T10:24:31;6.10;99.90
19307;DHT22;9788;48.194;16.318;2023-11-19T10:27:02;6.10;99.90
19307;DHT22;9788;48.194;16.318;2023-11-19T10:29:32;6.00;99.90
19307;DHT22;9788;48.194;16.318;2023-11-19T10:32:01;5.90;99.90
19307;DHT22;9788;48.194;16.318;2023-11-19T10:34:49;5.80;99.90
19307;DHT22;9788;48.194;16.318;2023-11-19T10:37:28;5.90;99.90
19307;DHT22;9788;48.194;16.318;2023-11-19T10:39:58;5.90;99.90
19307;DHT22;9788;48.194;16.318;2023-11-19T10:42:26;5.90;99.90
19307;DHT22;9788;48.194;16.318;2023-11-19T10:44:56;6.10;99.90
19307;DHT22;9788;48.194;16.318;2023-11-19T10:47:25;6.40;99.90
19307;DHT22;9788;48.194;16.318;2023-11-19T10:49:58;6.90;99.90
19307;DHT22;9788;48.194;16.318;2023-11-19T10:52:27;7.30;99.90
19307;DHT22;9788;48.194;16.318;2023-11-19T10:54:57;7.50;99.90
19307;DHT22;9788;48.194;16.318;2023-11-19T10:57:30;7.50;99.90
19307;DHT22;9788;48.194;16.318;2023-11-19T11:00:03;7.30;99.90
19307;DHT22;9788;48.194;16.318;2023-11-19T11:02:40;7.00;99.90
19307;DHT22;9788;48.194;16.318;2023-11-19T11:05:10;6.70;99.90
19307;DHT22;9788;48.194;16.318;2023-11-19T11:07:40;6.60;99.90
19307;DHT22;9788;48.194;16.318;2023-11-19T11:10:10;6.50;99.90
19307;DHT22;9788;48.194;16.318;2023-11-19T11:12:41;6.50;99.90
19307;DHT22;9788;48.194;16.318;2023-11-19T11:15:11;6.40;99.90
19307;DHT22;9788;48.194;16.318;2023-11-19T11:17:41;6.70;99.90
19307;DHT22;9788;48.194;16.318;2023-11-19T11:20:12;6.80;99.90
19307;DHT22;9788;48.194;16.318;2023-11-19T11:22:47;7.00;99.90
19307;DHT22;9788;48.194;16.318;2023-11-19T11:25:32;6.90;99.90
19307;DHT22;9788;48.194;16.318;2023-11-19T11:28:12;6.80;99.90
19307;DHT22;9788;48.194;16.318;2023-11-19T11:31:00;6.70;99.90
19307;DHT22;9788;48.194;16.318;2023-11-19T11:33:41;6.70;99.90
19307;DHT22;9788;48.194;16.318;2023-11-19T11:36:31;6.70;99.90
19307;DHT22;9788;48.194;16.318;2023-11-19T11:39:03;6.50;99.90
19307;DHT22;9788;48.194;16.318;2023-11-19T11:41:34;6.60;99.90
19307;DHT22;9788;48.194;16.318;2023-11-19T11:44:03;6.60;99.90
19307;DHT22;9788;48.194;16.318;2023-11-19T11:46:55;6.40;99.90
19307;DHT22;9788;48.194;16.318;2023-11-19T11:49:28;6.30;99.90
19307;DHT22;9788;48.194;16.318;2023-11-19T11:52:03;6.10;99.90
19307;DHT22;9788;48.194;16.318;2023-11-19T11:54:36;6.00;99.90
19307;DHT22;9788;48.194;16.318;2023-11-19T11:57:07;6.00;99.90
19307;DHT22;9788;48.194;16.318;2023-11-19T11:59:51;6.00;99.90
19307;DHT22;9788;48.194;16.318;2023-11-19T12:02:22;5.90;99.90
19307;DHT22;9788;48.194;16.318;2023-11-19T12:04:52;6.00;99.90
19307;DHT22;9788;48.194;16.318;2023-11-19T12:07:22;6.20;99.90
19307;DHT22;9788;48.194;16.318;2023-11-19T12:09:52;6.30;99.90
19307;DHT22;9788;48.194;16.318;2023-11-19T12:12:25;6.30;99.90
19307;DHT22;9788;48.194;16.318;2023-11-19T12:15:05;6.30;99.90
19307;DHT22;9788;48.194;16.318;2023-11-19T12:17:47;6.30;99.90
19307;DHT22;9788;48.194;16.318;2023-11-19T12:20:19;6.40;99.90
19307;DHT22;9788;48.194;16.318;2023-11-19T12:22:50;6.50;99.90
19307;DHT22;9788;48.194;16.318;2023-11-19T12:25:19;6.70;99.90
19307;DHT22;9788;48.194;16.318;2023-11-19T12:27:49;6.90;99.90
19307;DHT22;9788;48.194;16.318;2023-11-19T12:30:21;7.10;99.90
19307;DHT22;9788;48.194;16.318;2023-11-19T12:32:53;7.00;99.90
19307;DHT22;9788;48.194;16.318;2023-11-19T12:35:22;6.80;99.90
19307;DHT22;9788;48.194;16.318;2023-11-19T12:37:51;6.70;99.90
19307;DHT22;9788;48.194;16.318;2023-11-19T12:40:21;6.50;99.90
19307;DHT22;9788;48.194;16.318;2023-11-19T12:42:51;6.50;99.90
19307;DHT22;9788;48.194;16.318;2023-11-19T12:45:20;6.50;99.90
19307;DHT22;9788;48.194;16.318;2023-11-19T12:48:07;6.40;99.90
19307;DHT22;9788;48.194;16.318;2023-11-19T12:50:54;6.50;99.90
19307;DHT22;9788;48.194;16.318;2023-11-19T12:53:26;6.50;99.90
19307;DHT22;9788;48.194;16.318;2023-11-19T12:55:55;6.50;99.90
19307;DHT22;9788;48.194;16.318;2023-11-19T12:58:29;6.40;99.90
19307;DHT22;9788;48.194;16.318;2023-11-19T13:01:02;6.40;99.90
19307;DHT22;9788;48.194;16.318;2023-11-19T13:03:35;6.40;99.90
19307;DHT22;9788;48.194;16.318;2023-11-19T13:06:07;6.40;99.90
19307;DHT22;9788;48.194;16.318;2023-11-19T13:08:39;6.60;99.90
19307;DHT22;9788;48.194;16.318;2023-11-19T13:11:08;6.60;99.90
19307;DHT22;9788;48.194;16.318;2023-11-19T13:13:55;6.60;99.90
19307;DHT22;9788;48.194;16.318;2023-11-19T13:16:24;6.70;99.90
19307;DHT22;9788;48.194;16.318;2023-11-19T13:18:54;6.70;99.90
19307;DHT22;9788;48.194;16.318;2023-11-19T13:21:24;6.70;99.90
19307;DHT22;9788;48.194;16.318;2023-11-19T13:23:52;6.70;99.90
19307;DHT22;9788;48.194;16.318;2023-11-19T13:26:23;6.70;99.90
19307;DHT22;9788;48.194;16.318;2023-11-19T13:28:51;6.80;99.90
19307;DHT22;9788;48.194;16.318;2023-11-19T13:31:19;6.90;99.90
19307;DHT22;9788;48.194;16.318;2023-11-19T13:33:48;6.70;99.90
19307;DHT22;9788;48.194;16.318;2023-11-19T13:36:18;6.70;99.90
19307;DHT22;9788;48.194;16.318;2023-11-19T13:38:46;6.70;99.90
19307;DHT22;9788;48.194;16.318;2023-11-19T13:41:14;6.70;99.90
19307;DHT22;9788;48.194;16.318;2023-11-19T13:43:43;6.60;99.90
19307;DHT22;9788;48.194;16.318;2023-11-19T13:46:12;6.60;99.90
19307;DHT22;9788;48.194;16.318;2023-11-19T13:48:40;6.80;99.90
19307;DHT22;9788;48.194;16.318;2023-11-19T13:51:08;7.00;99.90
19307;DHT22;9788;48.194;16.318;2023-11-19T13:53:38;7.20;99.90
19307;DHT22;9788;48.194;16.318;2023-11-19T13:56:09;7.30;99.90
19307;DHT22;9788;48.194;16.318;2023-11-19T13:58:38;7.30;99.90
19307;DHT22;9788;48.194;16.318;2023-11-19T14:01:06;7.40;99.90
19307;DHT22;9788;48.194;16.318;2023-11-19T14:03:36;7.20;99.90
19307;DHT22;9788;48.194;16.318;2023-11-19T14:06:06;6.90;99.90
19307;DHT22;9788;48.194;16.318;2023-11-19T14:08:35;6.70;99.90
19307;DHT22;9788;48.194;16.318;2023-11-19T14:11:05;6.60;99.90
19307;DHT22;9788;48.194;16.318;2023-11-19T14:13:33;6.60;99.90
19307;DHT22;9788;48.194;16.318;2023-11-19T14:16:02;6.60;99.90
19307;DHT22;9788;48.194;16.318;2023-11-19T14:18:33;6.70;99.90
19307;DHT22;9788;48.194;16.318;2023-11-19T14:21:02;6.70;99.90
19307;DHT22;9788;48.194;16.318;2023-11-19T14:23:31;6.70;99.90
19307;DHT22;9788;48.194;16.318;2023-11-19T14:26:02;6.70;99.90
19307;DHT22;9788;48.194;16.318;2023-11-19T14:28:36;6.60;99.90
19307;DHT22;9788;48.194;16.318;2023-11-19T14:31:21;6.60;99.90
19307;DHT22;9788;48.194;16.318;2023-11-19T14:33:50;6.40;99.90
19307;DHT22;9788;48.194;16.318;2023-11-19T14:36:20;6.40;99.90
19307;DHT22;9788;48.194;16.318;2023-11-19T14:38:48;6.40;99.90
19307;DHT22;9788;48.194;16.318;2023-11-19T14:41:17;6.30;99.90
19307;DHT22;9788;48.194;16.318;2023-11-19T14:43:47;6.20;99.90
19307;DHT22;9788;48.194;16.318;2023-11-19T14:46:15;6.20;99.90
19307;DHT22;9788;48.194;16.318;2023-11-19T14:48:43;6.30;99.90
19307;DHT22;9788;48.194;16.318;2023-11-19T14:51:12;6.30;99.90
19307;DHT22;9788;48.194;16.318;2023-11-19T14:53:40;6.30;99.90
19307;DHT22;9788;48.194;16.318;2023-11-19T14:56:10;6.30;99.90
19307;DHT22;9788;48.194;16.318;2023-11-19T14:58:39;6.40;99.90
19307;DHT22;9788;48.194;16.318;2023-11-19T15:01:13;6.40;99.90
19307;DHT22;9788;48.194;16.318;2023-11-19T15:03:42;6.40;99.90
19307;DHT22;9788;48.194;16.318;2023-11-19T15:06:14;6.30;99.90
19307;DHT22;9788;48.194;16.318;2023-11-19T15:08:43;6.30;99.90
19307;DHT22;9788;48.194;16.318;2023-11-19T15:11:12;6.30;99.90
19307;DHT22;9788;48.194;16.318;2023-11-19T15:13:40;6.30;99.90
19307;DHT22;9788;48.194;16.318;2023-11-19T15:16:09;6.30;99.90
19307;DHT22;9788;48.194;16.318;2023-11-19T15:18:40;6.30;99.90
19307;DHT22;9788;48.194;16.318;2023-11-19T15:21:09;6.20;99.90
19307;DHT22;9788;48.194;16.318;2023-11-19T15:23:36;6.10;99.90
19307;DHT22;9788;48.194;16.318;2023-11-19T15:26:06;6.00;99.90
19307;DHT22;9788;48.194;16.318;2023-11-19T15:28:37;5.90;99.90
19307;DHT22;9788;48.194;16.318;2023-11-19T15:31:05;5.80;99.90
19307;DHT22;9788;48.194;16.318;2023-11-19T15:33:34;5.60;99.90
19307;DHT22;9788;48.194;16.318;2023-11-19T15:36:04;5.60;99.90
19307;DHT22;9788;48.194;16.318;2023-11-19T15:38:37;5.40;99.90
19307;DHT22;9788;48.194;16.318;2023-11-19T15:41:08;5.40;99.90
19307;DHT22;9788;48.194;16.318;2023-11-19T15:43:39;5.30;99.90
19307;DHT22;9788;48.194;16.318;2023-11-19T15:46:08;5.20;99.90
19307;DHT22;9788;48.194;16.318;2023-11-19T15:48:43;5.10;99.90
19307;DHT22;9788;48.194;16.318;2023-11-19T15:51:13;5.10;99.90
19307;DHT22;9788;48.194;16.318;2023-11-19T15:53:41;5.10;99.90
19307;DHT22;9788;48.194;16.318;2023-11-19T15:56:10;5.10;99.90
19307;DHT22;9788;48.194;16.318;2023-11-19T15:58:38;5.10;99.90
19307;DHT22;9788;48.194;16.318;2023-11-19T16:01:07;5.00;99.90
19307;DHT22;9788;48.194;16.318;2023-11-19T16:03:41;4.90;99.90